createdAt,value
2023-01-08T00:13:23.297Z,6.39
2023-01-08T00:28:25.535Z,6.49
2023-01-08T00:43:27.851Z,6.7
2023-01-08T00:58:30.142Z,6.37
2023-01-08T01:13:32.437Z,6.36
2023-01-08T01:28:34.690Z,5.77
2023-01-08T01:43:36.893Z,5.78
2023-01-08T01:58:39.276Z,5.27
2023-01-08T02:13:41.670Z,5.6
2023-01-08T02:28:43.894Z,5.62
2023-01-08T02:43:46.138Z,5.64
2023-01-08T02:58:48.356Z,5.82
2023-01-08T03:13:50.676Z,5.38
2023-01-08T03:28:52.968Z,5.53
2023-01-08T03:43:55.209Z,5.66
2023-01-08T03:58:57.472Z,5.83
2023-01-08T04:13:59.698Z,5.77
2023-01-08T04:29:02.086Z,5.46
2023-01-08T04:44:05.054Z,5.65
2023-01-08T04:59:07.532Z,5.15
2023-01-08T05:14:09.796Z,5.52
2023-01-08T05:29:12.058Z,5.01
2023-01-08T05:44:14.291Z,5.45
2023-01-08T05:59:16.876Z,5.63
2023-01-08T06:14:19.140Z,4.84
2023-01-08T06:29:21.341Z,5.33
2023-01-08T06:44:23.578Z,5
2023-01-08T06:59:25.907Z,5.32
2023-01-08T07:14:28.155Z,5.19
2023-01-08T07:29:30.413Z,5.41
2023-01-08T07:44:32.647Z,5.61
2023-01-08T07:59:34.893Z,5.41
2023-01-08T08:14:37.156Z,5.23
2023-01-08T08:29:39.356Z,5.29
2023-01-08T08:44:42.877Z,5.24
2023-01-08T08:59:45.339Z,5.37
2023-01-08T09:14:47.566Z,4.9
2023-01-08T09:29:49.953Z,5.07
2023-01-08T09:44:52.206Z,5.28
2023-01-08T09:59:54.604Z,5.04
2023-01-08T10:14:57.980Z,5.34
2023-01-08T10:30:00.166Z,5.46
2023-01-08T10:45:02.379Z,5.22
2023-01-08T11:00:04.668Z,4.85
2023-01-08T11:15:06.922Z,5.04
2023-01-08T11:30:09.179Z,4.92
2023-01-08T11:45:11.513Z,4.59
2023-01-08T12:00:14.484Z,5.15
2023-01-08T12:15:16.740Z,4.41
2023-01-08T12:30:19.300Z,4.82
2023-01-08T12:45:21.531Z,5.21
2023-01-08T13:00:23.978Z,5.22
2023-01-08T13:15:26.387Z,5.17
2023-01-08T13:30:30.761Z,5.35
2023-01-08T13:45:33.373Z,5.1
2023-01-08T14:00:35.706Z,5.29
2023-01-08T14:15:38.024Z,5.37
2023-01-08T14:30:40.380Z,5.42
2023-01-08T14:45:42.675Z,4.9
2023-01-08T15:00:45.022Z,5.05
2023-01-08T15:15:48.140Z,4.96
2023-01-08T15:30:50.507Z,4.92
2023-01-08T15:45:52.868Z,4.86
2023-01-08T16:00:55.299Z,5.22
2023-01-08T16:15:57.664Z,4.98
2023-01-08T16:31:00.087Z,4.78
2023-01-08T16:46:02.646Z,5.33
2023-01-08T17:01:05.059Z,5.41
2023-01-08T17:16:07.475Z,5.2
2023-01-08T17:31:09.911Z,5.41
2023-01-08T17:46:12.255Z,5.13
2023-01-08T18:01:14.578Z,5.23
2023-01-08T18:16:17.328Z,5.58
2023-01-08T18:31:19.786Z,5.62
2023-01-08T18:46:22.090Z,5.5
2023-01-08T19:01:24.621Z,5.53
2023-01-08T19:16:27.095Z,5.72
2023-01-08T19:31:29.490Z,5.83
2023-01-08T19:46:31.840Z,5.89
2023-01-08T20:01:34.310Z,5.86
2023-01-08T20:16:36.900Z,5.83
2023-01-08T20:31:39.270Z,5.79
2023-01-08T20:46:41.661Z,6.06
2023-01-08T21:01:44.092Z,5.68
2023-01-08T21:16:46.496Z,5.51
2023-01-08T21:31:48.960Z,6.03
2023-01-08T21:46:51.488Z,6.08
2023-01-08T22:01:54.009Z,6.07
2023-01-08T22:16:56.420Z,6.17
2023-01-08T22:31:58.785Z,6.07
2023-01-08T22:47:01.214Z,6.07
2023-01-08T23:02:03.529Z,6.23
2023-01-08T23:17:05.879Z,6.08
2023-01-08T23:32:08.304Z,5.87
2023-01-08T23:47:10.635Z,5.85
